sensor_id;sensor_type;location;lat;lon;timestamp;P1;durP1;ratioP1;P2;durP2;ratioP2
938;SDS011;456;53.584;9.968;2023-03-01T00:01:20;1.30;;;1.10;;
938;SDS011;456;53.584;9.968;2023-03-01T00:03:48;1.80;;;1.17;;
938;SDS011;456;53.584;9.968;2023-03-01T00:06:14;1.17;;;0.80;;
938;SDS011;456;53.584;9.968;2023-03-01T00:08:40;0.90;;;0.87;;
938;SDS011;456;53.584;9.968;2023-03-01T00:11:11;1.73;;;1.20;;
938;SDS011;456;53.584;9.968;2023-03-01T00:13:42;1.20;;;1.03;;
938;SDS011;456;53.584;9.968;2023-03-01T00:16:30;1.37;;;0.97;;
938;SDS011;456;53.584;9.968;2023-03-01T00:18:56;1.10;;;1.00;;
938;SDS011;456;53.584;9.968;2023-03-01T00:21:22;1.10;;;1.00;;
938;SDS011;456;53.584;9.968;2023-03-01T00:23:48;1.50;;;1.13;;
938;SDS011;456;53.584;9.968;2023-03-01T00:26:14;2.03;;;1.10;;
938;SDS011;456;53.584;9.968;2023-03-01T00:28:41;2.67;;;1.50;;
938;SDS011;456;53.584;9.968;2023-03-01T00:31:09;1.47;;;1.33;;
938;SDS011;456;53.584;9.968;2023-03-01T00:33:38;1.77;;;1.67;;
938;SDS011;456;53.584;9.968;2023-03-01T00:36:04;1.20;;;1.10;;
938;SDS011;456;53.584;9.968;2023-03-01T00:38:34;1.73;;;1.30;;
938;SDS011;456;53.584;9.968;2023-03-01T00:41:07;1.30;;;1.10;;
938;SDS011;456;53.584;9.968;2023-03-01T00:43:36;1.40;;;1.30;;
938;SDS011;456;53.584;9.968;2023-03-01T00:46:02;1.83;;;1.20;;
938;SDS011;456;53.584;9.968;2023-03-01T00:48:29;2.33;;;1.70;;
938;SDS011;456;53.584;9.968;2023-03-01T00:50:55;2.27;;;1.37;;
938;SDS011;456;53.584;9.968;2023-03-01T00:53:20;1.50;;;1.40;;
938;SDS011;456;53.584;9.968;2023-03-01T00:55:46;1.30;;;1.20;;
938;SDS011;456;53.584;9.968;2023-03-01T00:58:11;2.10;;;1.47;;
938;SDS011;456;53.584;9.968;2023-03-01T01:00:37;1.30;;;1.20;;
938;SDS011;456;53.584;9.968;2023-03-01T01:03:03;1.30;;;1.20;;
938;SDS011;456;53.584;9.968;2023-03-01T01:05:28;1.07;;;0.90;;
938;SDS011;456;53.584;9.968;2023-03-01T01:07:54;1.10;;;1.00;;
938;SDS011;456;53.584;9.968;2023-03-01T01:10:19;1.27;;;1.10;;
938;SDS011;456;53.584;9.968;2023-03-01T01:12:45;2.97;;;1.00;;
938;SDS011;456;53.584;9.968;2023-03-01T01:15:11;1.43;;;1.33;;
938;SDS011;456;53.584;9.968;2023-03-01T01:17:39;1.63;;;1.33;;
938;SDS011;456;53.584;9.968;2023-03-01T01:20:05;1.43;;;1.10;;
938;SDS011;456;53.584;9.968;2023-03-01T01:22:31;1.80;;;1.27;;
938;SDS011;456;53.584;9.968;2023-03-01T01:24:56;1.07;;;0.90;;
938;SDS011;456;53.584;9.968;2023-03-01T01:27:22;2.67;;;1.10;;
938;SDS011;456;53.584;9.968;2023-03-01T01:29:47;1.37;;;1.27;;
938;SDS011;456;53.584;9.968;2023-03-01T01:32:13;1.30;;;1.20;;
938;SDS011;456;53.584;9.968;2023-03-01T01:34:39;1.20;;;1.10;;
938;SDS011;456;53.584;9.968;2023-03-01T01:37:04;1.40;;;1.20;;
938;SDS011;456;53.584;9.968;2023-03-01T01:39:32;1.37;;;1.27;;
938;SDS011;456;53.584;9.968;2023-03-01T01:41:59;1.27;;;1.17;;
938;SDS011;456;53.584;9.968;2023-03-01T01:44:26;1.77;;;1.10;;
938;SDS011;456;53.584;9.968;2023-03-01T01:46:58;1.43;;;1.30;;
938;SDS011;456;53.584;9.968;2023-03-01T01:49:53;1.20;;;1.10;;
938;SDS011;456;53.584;9.968;2023-03-01T01:52:21;2.07;;;1.13;;
938;SDS011;456;53.584;9.968;2023-03-01T01:54:51;1.93;;;1.07;;
938;SDS011;456;53.584;9.968;2023-03-01T01:57:30;1.40;;;1.30;;
938;SDS011;456;53.584;9.968;2023-03-01T02:00:00;1.20;;;1.10;;
938;SDS011;456;53.584;9.968;2023-03-01T02:02:30;1.93;;;1.27;;
938;SDS011;456;53.584;9.968;2023-03-01T02:05:02;2.80;;;1.47;;
938;SDS011;456;53.584;9.968;2023-03-01T02:07:36;1.20;;;1.10;;
938;SDS011;456;53.584;9.968;2023-03-01T02:10:04;1.83;;;1.20;;
938;SDS011;456;53.584;9.968;2023-03-01T02:12:31;1.30;;;1.20;;
938;SDS011;456;53.584;9.968;2023-03-01T02:14:57;1.60;;;1.40;;
938;SDS011;456;53.584;9.968;2023-03-01T02:17:22;1.20;;;1.10;;
938;SDS011;456;53.584;9.968;2023-03-01T02:30:19;1.67;;;1.43;;
938;SDS011;456;53.584;9.968;2023-03-01T02:32:47;1.40;;;1.10;;
938;SDS011;456;53.584;9.968;2023-03-01T02:35:14;1.83;;;1.50;;
938;SDS011;456;53.584;9.968;2023-03-01T02:37:42;1.33;;;1.13;;
938;SDS011;456;53.584;9.968;2023-03-01T02:40:10;2.40;;;1.10;;
938;SDS011;456;53.584;9.968;2023-03-01T02:42:45;1.83;;;1.27;;
938;SDS011;456;53.584;9.968;2023-03-01T02:45:14;2.33;;;1.37;;
938;SDS011;456;53.584;9.968;2023-03-01T02:47:40;1.37;;;1.10;;
938;SDS011;456;53.584;9.968;2023-03-01T02:50:23;1.30;;;1.20;;
938;SDS011;456;53.584;9.968;2023-03-01T02:55:30;1.50;;;1.40;;
938;SDS011;456;53.584;9.968;2023-03-01T02:57:56;1.67;;;1.50;;
938;SDS011;456;53.584;9.968;2023-03-01T03:00:29;1.43;;;1.33;;
938;SDS011;456;53.584;9.968;2023-03-01T03:03:00;2.00;;;1.57;;
938;SDS011;456;53.584;9.968;2023-03-01T03:05:27;2.47;;;1.30;;
938;SDS011;456;53.584;9.968;2023-03-01T03:07:54;1.77;;;1.50;;
938;SDS011;456;53.584;9.968;2023-03-01T03:10:24;1.60;;;1.00;;
938;SDS011;456;53.584;9.968;2023-03-01T03:12:56;2.00;;;1.40;;
938;SDS011;456;53.584;9.968;2023-03-01T03:15:22;1.23;;;1.10;;
938;SDS011;456;53.584;9.968;2023-03-01T03:17:48;1.03;;;0.93;;
938;SDS011;456;53.584;9.968;2023-03-01T03:20:15;1.07;;;0.97;;
938;SDS011;456;53.584;9.968;2023-03-01T03:22:44;1.30;;;1.03;;
938;SDS011;456;53.584;9.968;2023-03-01T03:25:10;1.10;;;1.00;;
938;SDS011;456;53.584;9.968;2023-03-01T03:27:40;1.40;;;1.10;;
938;SDS011;456;53.584;9.968;2023-03-01T03:30:08;1.40;;;1.20;;
938;SDS011;456;53.584;9.968;2023-03-01T03:32:38;1.60;;;1.20;;
938;SDS011;456;53.584;9.968;2023-03-01T03:35:05;1.30;;;1.20;;
938;SDS011;456;53.584;9.968;2023-03-01T03:37:38;1.73;;;1.50;;
938;SDS011;456;53.584;9.968;2023-03-01T03:40:23;2.20;;;1.20;;
938;SDS011;456;53.584;9.968;2023-03-01T03:42:49;1.20;;;1.00;;
938;SDS011;456;53.584;9.968;2023-03-01T03:45:16;1.47;;;1.07;;
938;SDS011;456;53.584;9.968;2023-03-01T03:47:42;1.73;;;1.50;;
938;SDS011;456;53.584;9.968;2023-03-01T03:50:09;1.30;;;1.20;;
938;SDS011;456;53.584;9.968;2023-03-01T03:52:36;1.57;;;1.33;;
938;SDS011;456;53.584;9.968;2023-03-01T03:55:02;1.77;;;1.33;;
938;SDS011;456;53.584;9.968;2023-03-01T03:57:28;1.57;;;1.33;;
938;SDS011;456;53.584;9.968;2023-03-01T03:59:54;1.30;;;1.20;;
938;SDS011;456;53.584;9.968;2023-03-01T04:02:19;1.40;;;1.30;;
938;SDS011;456;53.584;9.968;2023-03-01T04:04:47;2.13;;;1.33;;
938;SDS011;456;53.584;9.968;2023-03-01T04:07:14;1.63;;;1.17;;
938;SDS011;456;53.584;9.968;2023-03-01T04:09:40;2.33;;;1.10;;
938;SDS011;456;53.584;9.968;2023-03-01T04:12:07;1.53;;;1.13;;
938;SDS011;456;53.584;9.968;2023-03-01T04:14:33;1.60;;;1.40;;
938;SDS011;456;53.584;9.968;2023-03-01T04:16:58;1.20;;;1.00;;
938;SDS011;456;53.584;9.968;2023-03-01T04:19:24;1.70;;;1.50;;
938;SDS011;456;53.584;9.968;2023-03-01T04:21:51;1.23;;;1.13;;
938;SDS011;456;53.584;9.968;2023-03-01T04:24:17;1.43;;;0.97;;
938;SDS011;456;53.584;9.968;2023-03-01T04:26:43;1.70;;;1.47;;
938;SDS011;456;53.584;9.968;2023-03-01T04:29:09;1.20;;;1.10;;
938;SDS011;456;53.584;9.968;2023-03-01T04:31:35;1.10;;;0.93;;
938;SDS011;456;53.584;9.968;2023-03-01T04:34:00;1.90;;;1.30;;
938;SDS011;456;53.584;9.968;2023-03-01T04:36:27;1.90;;;1.20;;
938;SDS011;456;53.584;9.968;2023-03-01T04:38:54;2.50;;;1.50;;
938;SDS011;456;53.584;9.968;2023-03-01T04:41:20;1.30;;;1.17;;
938;SDS011;456;53.584;9.968;2023-03-01T04:43:48;2.00;;;1.37;;
938;SDS011;456;53.584;9.968;2023-03-01T04:46:15;2.53;;;1.40;;
938;SDS011;456;53.584;9.968;2023-03-01T04:48:43;1.37;;;1.27;;
938;SDS011;456;53.584;9.968;2023-03-01T04:51:10;1.47;;;1.37;;
938;SDS011;456;53.584;9.968;2023-03-01T04:53:38;1.37;;;1.20;;
938;SDS011;456;53.584;9.968;2023-03-01T04:56:05;1.53;;;1.43;;
938;SDS011;456;53.584;9.968;2023-03-01T04:58:31;2.60;;;1.20;;
938;SDS011;456;53.584;9.968;2023-03-01T05:00:57;1.87;;;1.37;;
938;SDS011;456;53.584;9.968;2023-03-01T05:03:23;1.43;;;1.23;;
938;SDS011;456;53.584;9.968;2023-03-01T05:05:49;1.57;;;1.23;;
938;SDS011;456;53.584;9.968;2023-03-01T05:08:16;1.93;;;1.40;;
938;SDS011;456;53.584;9.968;2023-03-01T05:10:50;1.37;;;1.10;;
938;SDS011;456;53.584;9.968;2023-03-01T05:13:17;2.30;;;1.70;;
938;SDS011;456;53.584;9.968;2023-03-01T05:15:55;1.50;;;1.40;;
938;SDS011;456;53.584;9.968;2023-03-01T05:18:23;1.47;;;1.30;;
938;SDS011;456;53.584;9.968;2023-03-01T05:20:51;1.40;;;1.07;;
938;SDS011;456;53.584;9.968;2023-03-01T05:23:17;1.70;;;1.47;;
938;SDS011;456;53.584;9.968;2023-03-01T05:25:43;1.27;;;1.17;;
938;SDS011;456;53.584;9.968;2023-03-01T05:28:12;2.10;;;1.90;;
938;SDS011;456;53.584;9.968;2023-03-01T05:30:39;1.83;;;1.60;;
938;SDS011;456;53.584;9.968;2023-03-01T05:33:04;3.10;;;1.50;;
938;SDS011;456;53.584;9.968;2023-03-01T05:35:35;1.50;;;1.40;;
938;SDS011;456;53.584;9.968;2023-03-01T05:38:01;1.70;;;1.20;;
938;SDS011;456;53.584;9.968;2023-03-01T05:40:27;2.20;;;1.30;;
938;SDS011;456;53.584;9.968;2023-03-01T05:42:54;2.77;;;1.67;;
938;SDS011;456;53.584;9.968;2023-03-01T05:45:21;1.30;;;1.20;;
938;SDS011;456;53.584;9.968;2023-03-01T05:47:48;1.97;;;1.40;;
938;SDS011;456;53.584;9.968;2023-03-01T05:52:48;2.10;;;1.60;;
938;SDS011;456;53.584;9.968;2023-03-01T05:55:19;1.40;;;1.23;;
938;SDS011;456;53.584;9.968;2023-03-01T05:57:45;3.10;;;1.87;;
938;SDS011;456;53.584;9.968;2023-03-01T06:00:11;1.90;;;1.40;;
938;SDS011;456;53.584;9.968;2023-03-01T06:02:38;3.93;;;1.50;;
938;SDS011;456;53.584;9.968;2023-03-01T06:05:05;1.50;;;1.30;;
938;SDS011;456;53.584;9.968;2023-03-01T06:07:32;1.53;;;1.40;;
938;SDS011;456;53.584;9.968;2023-03-01T06:09:57;2.00;;;1.40;;
938;SDS011;456;53.584;9.968;2023-03-01T06:12:23;2.17;;;1.53;;
938;SDS011;456;53.584;9.968;2023-03-01T06:14:49;1.30;;;1.20;;
938;SDS011;456;53.584;9.968;2023-03-01T06:17:14;1.87;;;1.60;;
938;SDS011;456;53.584;9.968;2023-03-01T06:19:40;1.43;;;1.27;;
938;SDS011;456;53.584;9.968;2023-03-01T06:22:06;1.13;;;1.03;;
938;SDS011;456;53.584;9.968;2023-03-01T06:24:31;1.57;;;1.47;;
938;SDS011;456;53.584;9.968;2023-03-01T06:26:58;1.30;;;1.20;;
938;SDS011;456;53.584;9.968;2023-03-01T06:29:23;1.97;;;1.57;;
938;SDS011;456;53.584;9.968;2023-03-01T06:31:49;2.50;;;1.90;;
938;SDS011;456;53.584;9.968;2023-03-01T06:34:14;1.40;;;1.30;;
938;SDS011;456;53.584;9.968;2023-03-01T06:36:40;1.67;;;1.43;;
938;SDS011;456;53.584;9.968;2023-03-01T06:39:06;1.60;;;1.50;;
938;SDS011;456;53.584;9.968;2023-03-01T06:41:32;1.63;;;1.50;;
938;SDS011;456;53.584;9.968;2023-03-01T06:43:59;3.33;;;1.47;;
938;SDS011;456;53.584;9.968;2023-03-01T06:46:25;1.30;;;1.20;;
938;SDS011;456;53.584;9.968;2023-03-01T06:48:51;2.50;;;1.43;;
938;SDS011;456;53.584;9.968;2023-03-01T06:51:16;1.50;;;1.40;;
938;SDS011;456;53.584;9.968;2023-03-01T06:53:42;2.67;;;1.90;;
938;SDS011;456;53.584;9.968;2023-03-01T06:56:07;2.20;;;1.50;;
938;SDS011;456;53.584;9.968;2023-03-01T06:58:33;1.87;;;1.50;;
938;SDS011;456;53.584;9.968;2023-03-01T07:00:59;1.70;;;1.40;;
938;SDS011;456;53.584;9.968;2023-03-01T07:03:24;2.27;;;2.07;;
938;SDS011;456;53.584;9.968;2023-03-01T07:05:50;3.07;;;2.60;;
938;SDS011;456;53.584;9.968;2023-03-01T07:08:18;5.37;;;3.40;;
938;SDS011;456;53.584;9.968;2023-03-01T07:10:44;8.43;;;5.67;;
938;SDS011;456;53.584;9.968;2023-03-01T07:13:10;9.63;;;6.23;;
938;SDS011;456;53.584;9.968;2023-03-01T07:15:35;7.93;;;5.80;;
938;SDS011;456;53.584;9.968;2023-03-01T07:18:01;8.63;;;6.13;;
938;SDS011;456;53.584;9.968;2023-03-01T07:20:27;8.90;;;6.37;;
938;SDS011;456;53.584;9.968;2023-03-01T07:22:53;11.10;;;6.73;;
938;SDS011;456;53.584;9.968;2023-03-01T07:25:20;7.63;;;6.17;;
938;SDS011;456;53.584;9.968;2023-03-01T07:27:49;7.63;;;5.73;;
938;SDS011;456;53.584;9.968;2023-03-01T07:30:18;8.67;;;5.27;;
938;SDS011;456;53.584;9.968;2023-03-01T07:32:45;8.80;;;5.07;;
938;SDS011;456;53.584;9.968;2023-03-01T07:35:11;7.07;;;4.97;;
938;SDS011;456;53.584;9.968;2023-03-01T07:37:36;5.67;;;4.40;;
938;SDS011;456;53.584;9.968;2023-03-01T07:40:02;12.90;;;5.23;;
938;SDS011;456;53.584;9.968;2023-03-01T07:42:28;5.53;;;4.77;;
938;SDS011;456;53.584;9.968;2023-03-01T07:44:54;6.87;;;4.60;;
938;SDS011;456;53.584;9.968;2023-03-01T07:47:19;6.17;;;4.80;;
938;SDS011;456;53.584;9.968;2023-03-01T07:49:45;6.07;;;4.80;;
938;SDS011;456;53.584;9.968;2023-03-01T07:52:11;5.67;;;4.70;;
938;SDS011;456;53.584;9.968;2023-03-01T07:54:37;4.50;;;4.10;;
938;SDS011;456;53.584;9.968;2023-03-01T07:57:02;6.00;;;4.03;;
938;SDS011;456;53.584;9.968;2023-03-01T07:59:28;6.23;;;4.40;;
938;SDS011;456;53.584;9.968;2023-03-01T08:01:57;5.20;;;3.60;;
938;SDS011;456;53.584;9.968;2023-03-01T08:04:22;5.30;;;4.47;;
938;SDS011;456;53.584;9.968;2023-03-01T08:06:50;4.13;;;3.67;;
938;SDS011;456;53.584;9.968;2023-03-01T08:09:16;4.20;;;3.70;;
938;SDS011;456;53.584;9.968;2023-03-01T08:11:41;4.57;;;4.10;;
938;SDS011;456;53.584;9.968;2023-03-01T08:14:07;5.00;;;3.97;;
938;SDS011;456;53.584;9.968;2023-03-01T08:16:33;5.30;;;4.10;;
938;SDS011;456;53.584;9.968;2023-03-01T08:19:18;5.00;;;3.93;;
938;SDS011;456;53.584;9.968;2023-03-01T08:21:44;4.40;;;3.57;;
938;SDS011;456;53.584;9.968;2023-03-01T08:24:09;4.80;;;3.60;;
938;SDS011;456;53.584;9.968;2023-03-01T08:26:35;5.13;;;3.87;;
938;SDS011;456;53.584;9.968;2023-03-01T08:29:01;5.53;;;4.67;;
938;SDS011;456;53.584;9.968;2023-03-01T08:31:32;3.60;;;3.30;;
938;SDS011;456;53.584;9.968;2023-03-01T08:34:04;3.80;;;3.50;;
938;SDS011;456;53.584;9.968;2023-03-01T08:36:32;4.17;;;2.87;;
938;SDS011;456;53.584;9.968;2023-03-01T08:39:03;4.47;;;3.67;;
938;SDS011;456;53.584;9.968;2023-03-01T08:41:30;4.00;;;3.50;;
938;SDS011;456;53.584;9.968;2023-03-01T08:43:56;4.13;;;3.30;;
938;SDS011;456;53.584;9.968;2023-03-01T08:46:25;5.07;;;3.80;;
938;SDS011;456;53.584;9.968;2023-03-01T08:48:55;3.07;;;2.77;;
938;SDS011;456;53.584;9.968;2023-03-01T08:51:21;3.40;;;3.07;;
938;SDS011;456;53.584;9.968;2023-03-01T08:53:48;4.93;;;3.10;;
938;SDS011;456;53.584;9.968;2023-03-01T08:56:14;3.60;;;3.30;;
938;SDS011;456;53.584;9.968;2023-03-01T08:58:43;3.10;;;2.80;;
938;SDS011;456;53.584;9.968;2023-03-01T09:01:10;4.00;;;3.37;;
938;SDS011;456;53.584;9.968;2023-03-01T09:03:38;3.00;;;2.70;;
938;SDS011;456;53.584;9.968;2023-03-01T09:06:04;3.70;;;3.40;;
938;SDS011;456;53.584;9.968;2023-03-01T09:08:34;4.20;;;3.80;;
938;SDS011;456;53.584;9.968;2023-03-01T09:11:01;3.37;;;3.07;;
938;SDS011;456;53.584;9.968;2023-03-01T09:13:28;3.80;;;3.50;;
938;SDS011;456;53.584;9.968;2023-03-01T09:15:56;3.50;;;2.90;;
938;SDS011;456;53.584;9.968;2023-03-01T09:18:26;4.37;;;3.90;;
938;SDS011;456;53.584;9.968;2023-03-01T09:20:51;3.30;;;2.70;;
938;SDS011;456;53.584;9.968;2023-03-01T09:23:19;3.50;;;3.00;;
938;SDS011;456;53.584;9.968;2023-03-01T09:25:46;3.93;;;3.50;;
938;SDS011;456;53.584;9.968;2023-03-01T09:28:11;3.50;;;3.17;;
938;SDS011;456;53.584;9.968;2023-03-01T09:30:37;4.07;;;3.10;;
938;SDS011;456;53.584;9.968;2023-03-01T09:33:02;3.67;;;3.37;;
938;SDS011;456;53.584;9.968;2023-03-01T09:35:28;3.27;;;3.00;;
938;SDS011;456;53.584;9.968;2023-03-01T09:37:53;4.37;;;3.53;;
938;SDS011;456;53.584;9.968;2023-03-01T09:40:20;3.83;;;3.53;;
938;SDS011;456;53.584;9.968;2023-03-01T09:45:25;3.50;;;3.20;;
938;SDS011;456;53.584;9.968;2023-03-01T09:47:51;3.37;;;3.07;;
938;SDS011;456;53.584;9.968;2023-03-01T09:50:20;4.50;;;3.17;;
938;SDS011;456;53.584;9.968;2023-03-01T09:52:48;3.30;;;2.90;;
938;SDS011;456;53.584;9.968;2023-03-01T09:55:31;3.40;;;3.13;;
938;SDS011;456;53.584;9.968;2023-03-01T10:09:35;3.97;;;3.20;;
938;SDS011;456;53.584;9.968;2023-03-01T10:12:10;3.80;;;2.80;;
938;SDS011;456;53.584;9.968;2023-03-01T10:14:50;3.80;;;3.40;;
938;SDS011;456;53.584;9.968;2023-03-01T10:20:18;3.30;;;3.00;;
938;SDS011;456;53.584;9.968;2023-03-01T10:22:49;4.90;;;3.20;;
938;SDS011;456;53.584;9.968;2023-03-01T10:30:56;4.17;;;3.77;;
938;SDS011;456;53.584;9.968;2023-03-01T10:33:25;5.00;;;3.40;;
938;SDS011;456;53.584;9.968;2023-03-01T10:35:54;3.53;;;3.23;;
938;SDS011;456;53.584;9.968;2023-03-01T10:38:19;3.27;;;2.97;;
938;SDS011;456;53.584;9.968;2023-03-01T10:40:53;3.10;;;2.90;;
938;SDS011;456;53.584;9.968;2023-03-01T10:43:22;3.00;;;2.80;;
938;SDS011;456;53.584;9.968;2023-03-01T10:45:51;3.30;;;2.77;;
938;SDS011;456;53.584;9.968;2023-03-01T10:48:18;3.50;;;3.20;;
938;SDS011;456;53.584;9.968;2023-03-01T10:50:49;3.40;;;3.00;;
938;SDS011;456;53.584;9.968;2023-03-01T10:53:36;3.13;;;2.83;;
938;SDS011;456;53.584;9.968;2023-03-01T10:56:10;3.33;;;3.00;;
938;SDS011;456;53.584;9.968;2023-03-01T10:58:39;4.13;;;2.87;;
938;SDS011;456;53.584;9.968;2023-03-01T11:01:24;3.73;;;3.43;;
938;SDS011;456;53.584;9.968;2023-03-01T11:06:32;3.47;;;3.17;;
938;SDS011;456;53.584;9.968;2023-03-01T11:09:12;4.33;;;3.93;;
938;SDS011;456;53.584;9.968;2023-03-01T11:11:52;4.40;;;3.70;;
938;SDS011;456;53.584;9.968;2023-03-01T11:14:23;3.90;;;3.50;;
938;SDS011;456;53.584;9.968;2023-03-01T11:17:12;4.50;;;3.70;;
938;SDS011;456;53.584;9.968;2023-03-01T11:22:54;4.70;;;3.70;;
938;SDS011;456;53.584;9.968;2023-03-01T11:25:38;4.40;;;4.00;;
938;SDS011;456;53.584;9.968;2023-03-01T11:28:07;3.90;;;3.57;;
938;SDS011;456;53.584;9.968;2023-03-01T11:33:35;4.10;;;3.70;;
938;SDS011;456;53.584;9.968;2023-03-01T11:38:41;4.07;;;3.67;;
938;SDS011;456;53.584;9.968;2023-03-01T11:41:10;4.40;;;4.00;;
938;SDS011;456;53.584;9.968;2023-03-01T11:43:49;4.00;;;3.60;;
938;SDS011;456;53.584;9.968;2023-03-01T12:00:24;3.83;;;3.53;;
938;SDS011;456;53.584;9.968;2023-03-01T12:08:48;3.80;;;3.50;;
938;SDS011;456;53.584;9.968;2023-03-01T12:17:11;3.50;;;3.20;;
938;SDS011;456;53.584;9.968;2023-03-01T12:20:57;2.93;;;2.73;;
